sensor_id;sensor_type;location;lat;lon;timestamp;pressure;altitude;pressure_sealevel;temperature;humidity
47556;BME280;33291;46.222;26.460;2023-09-19T00:01:40;96876.44;;;11.14;96.77
47556;BME280;33291;46.222;26.460;2023-09-19T00:04:08;96861.06;;;11.11;97.01
47556;BME280;33291;46.222;26.460;2023-09-19T00:06:36;96870.13;;;11.07;96.36
47556;BME280;33291;46.222;26.460;2023-09-19T00:09:01;96858.03;;;10.96;96.94
47556;BME280;33291;46.222;26.460;2023-09-19T00:11:27;96861.44;;;10.97;97.17
47556;BME280;33291;46.222;26.460;2023-09-19T00:13:54;96862.25;;;10.97;97.56
47556;BME280;33291;46.222;26.460;2023-09-19T00:16:20;96859.53;;;10.99;97.63
47556;BME280;33291;46.222;26.460;2023-09-19T00:18:46;96866.41;;;11.00;97.43
47556;BME280;33291;46.222;26.460;2023-09-19T00:21:12;96860.91;;;10.93;97.08
47556;BME280;33291;46.222;26.460;2023-09-19T00:23:38;96846.47;;;10.89;97.29
47556;BME280;33291;46.222;26.460;2023-09-19T00:26:03;96845.94;;;10.86;97.22
47556;BME280;33291;46.222;26.460;2023-09-19T00:28:29;96835.59;;;10.74;97.37
47556;BME280;33291;46.222;26.460;2023-09-19T00:30:55;96825.69;;;10.68;97.77
47556;BME280;33291;46.222;26.460;2023-09-19T00:33:21;96834.19;;;10.70;97.82
47556;BME280;33291;46.222;26.460;2023-09-19T00:35:54;96837.78;;;10.69;98.06
47556;BME280;33291;46.222;26.460;2023-09-19T00:38:21;96829.94;;;10.69;97.95
47556;BME280;33291;46.222;26.460;2023-09-19T00:40:48;96830.91;;;10.68;98.26
47556;BME280;33291;46.222;26.460;2023-09-19T00:43:16;96835.50;;;10.55;98.66
47556;BME280;33291;46.222;26.460;2023-09-19T00:45:46;96831.50;;;10.51;98.92
47556;BME280;33291;46.222;26.460;2023-09-19T00:48:13;96827.53;;;10.46;99.70
47556;BME280;33291;46.222;26.460;2023-09-19T00:50:41;96819.00;;;10.44;99.51
47556;BME280;33291;46.222;26.460;2023-09-19T00:53:08;96824.66;;;10.49;99.58
47556;BME280;33291;46.222;26.460;2023-09-19T00:55:38;96819.31;;;10.51;99.65
47556;BME280;33291;46.222;26.460;2023-09-19T00:58:04;96824.41;;;10.53;99.62
47556;BME280;33291;46.222;26.460;2023-09-19T01:00:33;96824.66;;;10.49;99.51
47556;BME280;33291;46.222;26.460;2023-09-19T01:03:02;96817.63;;;10.40;99.15
47556;BME280;33291;46.222;26.460;2023-09-19T01:05:28;96823.78;;;10.39;99.17
47556;BME280;33291;46.222;26.460;2023-09-19T01:07:55;96796.97;;;10.27;99.32
47556;BME280;33291;46.222;26.460;2023-09-19T01:10:21;96820.38;;;10.39;99.54
47556;BME280;33291;46.222;26.460;2023-09-19T01:21:14;96802.53;;;10.34;99.14
47556;BME280;33291;46.222;26.460;2023-09-19T01:31:57;96783.78;;;10.19;100.00
47556;BME280;33291;46.222;26.460;2023-09-19T01:34:26;96793.09;;;10.22;100.00
47556;BME280;33291;46.222;26.460;2023-09-19T01:36:52;96793.59;;;10.16;100.00
47556;BME280;33291;46.222;26.460;2023-09-19T01:39:17;96797.44;;;10.11;100.00
47556;BME280;33291;46.222;26.460;2023-09-19T01:42:01;96787.03;;;10.11;100.00
47556;BME280;33291;46.222;26.460;2023-09-19T01:47:39;96780.72;;;10.14;100.00
47556;BME280;33291;46.222;26.460;2023-09-19T01:52:56;96781.63;;;10.03;100.00
47556;BME280;33291;46.222;26.460;2023-09-19T01:55:26;96783.84;;;10.08;100.00
47556;BME280;33291;46.222;26.460;2023-09-19T01:58:11;96785.63;;;10.07;100.00
47556;BME280;33291;46.222;26.460;2023-09-19T02:00:41;96778.75;;;10.06;100.00
47556;BME280;33291;46.222;26.460;2023-09-19T02:03:09;96776.88;;;10.08;100.00
47556;BME280;33291;46.222;26.460;2023-09-19T02:05:35;96781.09;;;10.09;100.00
47556;BME280;33291;46.222;26.460;2023-09-19T02:08:00;96767.25;;;9.99;100.00
47556;BME280;33291;46.222;26.460;2023-09-19T02:10:26;96772.19;;;10.02;100.00
47556;BME280;33291;46.222;26.460;2023-09-19T02:12:52;96787.28;;;10.08;100.00
47556;BME280;33291;46.222;26.460;2023-09-19T02:15:18;96780.38;;;9.98;100.00
47556;BME280;33291;46.222;26.460;2023-09-19T02:17:43;96755.63;;;9.82;100.00
47556;BME280;33291;46.222;26.460;2023-09-19T02:20:12;96776.00;;;9.98;100.00
47556;BME280;33291;46.222;26.460;2023-09-19T02:22:43;96763.63;;;9.90;100.00
47556;BME280;33291;46.222;26.460;2023-09-19T02:25:09;96778.84;;;9.95;100.00
47556;BME280;33291;46.222;26.460;2023-09-19T02:27:34;96778.38;;;9.90;100.00
47556;BME280;33291;46.222;26.460;2023-09-19T02:30:01;96781.50;;;9.84;100.00
47556;BME280;33291;46.222;26.460;2023-09-19T02:32:30;96775.34;;;9.85;100.00
47556;BME280;33291;46.222;26.460;2023-09-19T02:34:57;96759.69;;;9.75;100.00
47556;BME280;33291;46.222;26.460;2023-09-19T02:37:23;96787.03;;;9.90;100.00
47556;BME280;33291;46.222;26.460;2023-09-19T02:39:49;96777.44;;;9.91;100.00
47556;BME280;33291;46.222;26.460;2023-09-19T02:42:14;96775.66;;;9.91;100.00
47556;BME280;33291;46.222;26.460;2023-09-19T02:44:40;96768.25;;;9.87;100.00
47556;BME280;33291;46.222;26.460;2023-09-19T02:47:05;96772.63;;;9.86;100.00
47556;BME280;33291;46.222;26.460;2023-09-19T02:49:31;96771.34;;;9.81;100.00
47556;BME280;33291;46.222;26.460;2023-09-19T02:51:56;96773.13;;;9.80;100.00
47556;BME280;33291;46.222;26.460;2023-09-19T02:54:24;96752.84;;;9.74;100.00
47556;BME280;33291;46.222;26.460;2023-09-19T02:56:49;96756.47;;;9.83;100.00
47556;BME280;33291;46.222;26.460;2023-09-19T02:59:14;96751.81;;;9.86;100.00
47556;BME280;33291;46.222;26.460;2023-09-19T03:01:43;96754.25;;;9.78;100.00
47556;BME280;33291;46.222;26.460;2023-09-19T03:04:08;96755.31;;;9.75;100.00
47556;BME280;33291;46.222;26.460;2023-09-19T03:06:36;96744.47;;;9.70;100.00
47556;BME280;33291;46.222;26.460;2023-09-19T03:09:02;96744.47;;;9.70;100.00
47556;BME280;33291;46.222;26.460;2023-09-19T03:11:31;96716.28;;;9.54;100.00
47556;BME280;33291;46.222;26.460;2023-09-19T03:13:56;96740.78;;;9.73;100.00
47556;BME280;33291;46.222;26.460;2023-09-19T03:16:22;96739.97;;;9.72;100.00
47556;BME280;33291;46.222;26.460;2023-09-19T03:18:51;96743.63;;;9.70;100.00
47556;BME280;33291;46.222;26.460;2023-09-19T03:21:16;96742.69;;;9.71;100.00
47556;BME280;33291;46.222;26.460;2023-09-19T03:23:43;96740.78;;;9.73;100.00
47556;BME280;33291;46.222;26.460;2023-09-19T03:26:13;96750.63;;;9.69;100.00
47556;BME280;33291;46.222;26.460;2023-09-19T03:28:42;96741.41;;;9.65;100.00
47556;BME280;33291;46.222;26.460;2023-09-19T03:31:08;96736.47;;;9.62;100.00
47556;BME280;33291;46.222;26.460;2023-09-19T03:33:34;96729.72;;;9.59;100.00
47556;BME280;33291;46.222;26.460;2023-09-19T03:36:01;96728.91;;;9.59;100.00
47556;BME280;33291;46.222;26.460;2023-09-19T03:38:30;96733.56;;;9.55;100.00
47556;BME280;33291;46.222;26.460;2023-09-19T03:40:56;96736.03;;;9.57;100.00
47556;BME280;33291;46.222;26.460;2023-09-19T03:43:21;96728.91;;;9.59;100.00
47556;BME280;33291;46.222;26.460;2023-09-19T03:45:47;96728.91;;;9.59;100.00
47556;BME280;33291;46.222;26.460;2023-09-19T03:48:12;96720.69;;;9.54;100.00
47556;BME280;33291;46.222;26.460;2023-09-19T03:50:38;96716.81;;;9.48;100.00
47556;BME280;33291;46.222;26.460;2023-09-19T03:53:05;96712.25;;;9.40;100.00
47556;BME280;33291;46.222;26.460;2023-09-19T03:55:32;96710.19;;;9.44;100.00
47556;BME280;33291;46.222;26.460;2023-09-19T03:58:00;96714.63;;;9.53;100.00
47556;BME280;33291;46.222;26.460;2023-09-19T04:00:26;96715.91;;;9.59;100.00
47556;BME280;33291;46.222;26.460;2023-09-19T04:02:52;96714.03;;;9.61;100.00
47556;BME280;33291;46.222;26.460;2023-09-19T04:05:18;96710.28;;;9.54;100.00
47556;BME280;33291;46.222;26.460;2023-09-19T04:07:44;96710.53;;;9.51;100.00
47556;BME280;33291;46.222;26.460;2023-09-19T04:10:10;96707.09;;;9.50;100.00
47556;BME280;33291;46.222;26.460;2023-09-19T04:12:36;96701.88;;;9.50;100.00
47556;BME280;33291;46.222;26.460;2023-09-19T04:15:02;96690.53;;;9.51;100.00
47556;BME280;33291;46.222;26.460;2023-09-19T04:17:28;96697.97;;;9.56;100.00
47556;BME280;33291;46.222;26.460;2023-09-19T04:19:54;96696.78;;;9.60;100.00
47556;BME280;33291;46.222;26.460;2023-09-19T04:22:19;96687.19;;;9.60;100.00
47556;BME280;33291;46.222;26.460;2023-09-19T04:24:45;96690.63;;;9.61;100.00
47556;BME280;33291;46.222;26.460;2023-09-19T04:27:10;96680.91;;;9.63;100.00
47556;BME280;33291;46.222;26.460;2023-09-19T04:29:37;96687.94;;;9.72;100.00
47556;BME280;33291;46.222;26.460;2023-09-19T04:32:03;96683.16;;;9.77;100.00
47556;BME280;33291;46.222;26.460;2023-09-19T04:34:31;96688.94;;;9.81;100.00
47556;BME280;33291;46.222;26.460;2023-09-19T04:36:56;96693.88;;;9.84;100.00
47556;BME280;33291;46.222;26.460;2023-09-19T04:39:23;96687.97;;;9.82;100.00
47556;BME280;33291;46.222;26.460;2023-09-19T04:41:51;96696.50;;;9.84;100.00
47556;BME280;33291;46.222;26.460;2023-09-19T04:44:16;96703.03;;;9.78;100.00
47556;BME280;33291;46.222;26.460;2023-09-19T04:46:43;96689.06;;;9.80;100.00
47556;BME280;33291;46.222;26.460;2023-09-19T04:49:09;96686.91;;;9.85;100.00
47556;BME280;33291;46.222;26.460;2023-09-19T04:51:35;96685.69;;;9.89;100.00
47556;BME280;33291;46.222;26.460;2023-09-19T04:54:01;96651.53;;;9.72;100.00
47556;BME280;33291;46.222;26.460;2023-09-19T04:56:28;96684.22;;;9.96;100.00
47556;BME280;33291;46.222;26.460;2023-09-19T04:58:57;96689.31;;;9.98;100.00
47556;BME280;33291;46.222;26.460;2023-09-19T05:01:23;96688.19;;;10.00;100.00
47556;BME280;33291;46.222;26.460;2023-09-19T05:03:50;96677.53;;;10.03;100.00
47556;BME280;33291;46.222;26.460;2023-09-19T05:06:19;96678.66;;;10.10;100.00
47556;BME280;33291;46.222;26.460;2023-09-19T05:08:51;96672.09;;;10.16;100.00
47556;BME280;33291;46.222;26.460;2023-09-19T05:11:21;96664.16;;;10.18;100.00
47556;BME280;33291;46.222;26.460;2023-09-19T05:13:48;96662.94;;;10.22;100.00
47556;BME280;33291;46.222;26.460;2023-09-19T05:16:15;96654.03;;;10.24;100.00
47556;BME280;33291;46.222;26.460;2023-09-19T05:18:41;96674.94;;;10.34;100.00
47556;BME280;33291;46.222;26.460;2023-09-19T05:21:07;96664.25;;;10.37;100.00
47556;BME280;33291;46.222;26.460;2023-09-19T05:23:33;96656.44;;;10.37;100.00
47556;BME280;33291;46.222;26.460;2023-09-19T05:25:58;96650.97;;;10.40;100.00
47556;BME280;33291;46.222;26.460;2023-09-19T05:28:26;96652.06;;;10.47;100.00
47556;BME280;33291;46.222;26.460;2023-09-19T05:30:52;96652.34;;;10.54;100.00
47556;BME280;33291;46.222;26.460;2023-09-19T05:33:18;96652.34;;;10.64;100.00
47556;BME280;33291;46.222;26.460;2023-09-19T05:35:44;96646.88;;;10.67;100.00
47556;BME280;33291;46.222;26.460;2023-09-19T05:38:13;96653.47;;;10.81;100.00
47556;BME280;33291;46.222;26.460;2023-09-19T05:40:40;96645.00;;;10.89;100.00
47556;BME280;33291;46.222;26.460;2023-09-19T05:43:09;96639.34;;;11.03;100.00
47556;BME280;33291;46.222;26.460;2023-09-19T05:45:35;96631.13;;;11.17;100.00
47556;BME280;33291;46.222;26.460;2023-09-19T05:48:12;96628.34;;;11.29;100.00
47556;BME280;33291;46.222;26.460;2023-09-19T05:50:38;96630.13;;;11.38;100.00
47556;BME280;33291;46.222;26.460;2023-09-19T05:53:04;96621.44;;;11.47;100.00
47556;BME280;33291;46.222;26.460;2023-09-19T05:55:30;96622.66;;;11.53;100.00
47556;BME280;33291;46.222;26.460;2023-09-19T05:57:55;96619.63;;;11.58;100.00
47556;BME280;33291;46.222;26.460;2023-09-19T06:00:23;96617.41;;;11.63;100.00
47556;BME280;33291;46.222;26.460;2023-09-19T06:02:52;96620.28;;;11.69;100.00
47556;BME280;33291;46.222;26.460;2023-09-19T06:05:18;96616.25;;;11.75;100.00
47556;BME280;33291;46.222;26.460;2023-09-19T06:07:44;96614.72;;;11.82;100.00
47556;BME280;33291;46.222;26.460;2023-09-19T06:10:10;96611.25;;;11.91;100.00
47556;BME280;33291;46.222;26.460;2023-09-19T06:12:54;96617.28;;;12.02;100.00
47556;BME280;33291;46.222;26.460;2023-09-19T06:15:20;96622.34;;;12.13;100.00
47556;BME280;33291;46.222;26.460;2023-09-19T06:17:51;96607.34;;;12.15;100.00
47556;BME280;33291;46.222;26.460;2023-09-19T06:20:17;96602.75;;;12.27;100.00
47556;BME280;33291;46.222;26.460;2023-09-19T06:22:45;96607.59;;;12.40;100.00
47556;BME280;33291;46.222;26.460;2023-09-19T06:25:12;96612.78;;;12.50;100.00
47556;BME280;33291;46.222;26.460;2023-09-19T06:27:41;96612.03;;;12.57;100.00
47556;BME280;33291;46.222;26.460;2023-09-19T06:30:10;96605.47;;;12.71;100.00
47556;BME280;33291;46.222;26.460;2023-09-19T06:32:37;96612.09;;;12.84;100.00
47556;BME280;33291;46.222;26.460;2023-09-19T06:35:02;96597.66;;;12.97;100.00
47556;BME280;33291;46.222;26.460;2023-09-19T06:37:29;96606.22;;;13.26;100.00
47556;BME280;33291;46.222;26.460;2023-09-19T06:39:56;96605.69;;;13.40;100.00
47556;BME280;33291;46.222;26.460;2023-09-19T06:42:22;96606.91;;;13.54;100.00
47556;BME280;33291;46.222;26.460;2023-09-19T06:44:48;96605.16;;;13.63;99.86
47556;BME280;33291;46.222;26.460;2023-09-19T06:47:14;96601.75;;;13.71;98.40
47556;BME280;33291;46.222;26.460;2023-09-19T06:49:42;96610.81;;;13.84;97.43
47556;BME280;33291;46.222;26.460;2023-09-19T06:52:11;96619.22;;;13.96;96.31
47556;BME280;33291;46.222;26.460;2023-09-19T06:54:36;96618.97;;;14.08;95.44
47556;BME280;33291;46.222;26.460;2023-09-19T06:57:03;96615.03;;;14.12;94.89
47556;BME280;33291;46.222;26.460;2023-09-19T06:59:28;96620.31;;;14.20;93.95
47556;BME280;33291;46.222;26.460;2023-09-19T07:01:54;96617.03;;;14.18;93.92
47556;BME280;33291;46.222;26.460;2023-09-19T07:04:19;96624.13;;;14.26;94.19
47556;BME280;33291;46.222;26.460;2023-09-19T07:06:49;96629.84;;;14.29;93.76
47556;BME280;33291;46.222;26.460;2023-09-19T07:09:15;96620.69;;;14.33;93.75
47556;BME280;33291;46.222;26.460;2023-09-19T07:11:41;96617.75;;;14.36;94.22
47556;BME280;33291;46.222;26.460;2023-09-19T07:14:08;96617.44;;;14.39;95.19
47556;BME280;33291;46.222;26.460;2023-09-19T07:16:37;96618.75;;;14.44;95.79
47556;BME280;33291;46.222;26.460;2023-09-19T07:19:04;96616.81;;;14.46;95.24
47556;BME280;33291;46.222;26.460;2023-09-19T07:21:29;96618.09;;;14.42;95.32
47556;BME280;33291;46.222;26.460;2023-09-19T07:23:55;96622.03;;;14.46;95.11
47556;BME280;33291;46.222;26.460;2023-09-19T07:26:20;96632.19;;;14.49;94.82
47556;BME280;33291;46.222;26.460;2023-09-19T07:28:46;96625.16;;;14.49;94.54
47556;BME280;33291;46.222;26.460;2023-09-19T07:31:11;96620.41;;;14.53;94.63
47556;BME280;33291;46.222;26.460;2023-09-19T07:33:39;96617.97;;;14.60;94.36
47556;BME280;33291;46.222;26.460;2023-09-19T07:36:05;96620.94;;;14.65;94.01
47556;BME280;33291;46.222;26.460;2023-09-19T07:38:31;96624.09;;;14.68;94.12
47556;BME280;33291;46.222;26.460;2023-09-19T07:41:01;96622.44;;;14.75;94.82
47556;BME280;33291;46.222;26.460;2023-09-19T07:43:28;96619.84;;;14.84;95.59
47556;BME280;33291;46.222;26.460;2023-09-19T07:45:53;96621.00;;;14.89;95.95
47556;BME280;33291;46.222;26.460;2023-09-19T07:48:18;96613.13;;;14.89;96.32
47556;BME280;33291;46.222;26.460;2023-09-19T07:50:44;96619.84;;;15.00;96.02
47556;BME280;33291;46.222;26.460;2023-09-19T07:53:10;96615.91;;;15.04;95.63
47556;BME280;33291;46.222;26.460;2023-09-19T07:55:38;96609.34;;;15.08;94.90
47556;BME280;33291;46.222;26.460;2023-09-19T07:58:04;96610.34;;;15.16;94.74
47556;BME280;33291;46.222;26.460;2023-09-19T08:00:32;96579.19;;;15.04;93.79
47556;BME280;33291;46.222;26.460;2023-09-19T08:03:00;96605.75;;;15.26;93.42
47556;BME280;33291;46.222;26.460;2023-09-19T08:05:26;96607.72;;;15.32;92.81
47556;BME280;33291;46.222;26.460;2023-09-19T08:07:52;96598.03;;;15.33;92.96
47556;BME280;33291;46.222;26.460;2023-09-19T08:10:19;96609.97;;;15.43;91.86
47556;BME280;33291;46.222;26.460;2023-09-19T08:12:46;96606.22;;;15.46;90.81
47556;BME280;33291;46.222;26.460;2023-09-19T08:15:16;96603.88;;;15.59;90.84
47556;BME280;33291;46.222;26.460;2023-09-19T08:17:42;96599.44;;;15.60;90.25
47556;BME280;33291;46.222;26.460;2023-09-19T08:20:09;96593.81;;;15.71;89.35
47556;BME280;33291;46.222;26.460;2023-09-19T08:22:48;96606.63;;;15.83;88.59
47556;BME280;33291;46.222;26.460;2023-09-19T08:25:15;96599.72;;;15.90;88.59
47556;BME280;33291;46.222;26.460;2023-09-19T08:27:48;96602.47;;;15.96;87.13
47556;BME280;33291;46.222;26.460;2023-09-19T08:30:20;96606.25;;;16.02;87.35
47556;BME280;33291;46.222;26.460;2023-09-19T08:32:56;96593.41;;;16.07;87.62
47556;BME280;33291;46.222;26.460;2023-09-19T08:35:23;96587.00;;;16.10;87.02
47556;BME280;33291;46.222;26.460;2023-09-19T08:37:49;96593.69;;;16.21;85.72
47556;BME280;33291;46.222;26.460;2023-09-19T08:40:14;96588.06;;;16.24;86.71
47556;BME280;33291;46.222;26.460;2023-09-19T08:42:54;96587.91;;;16.25;83.91
47556;BME280;33291;46.222;26.460;2023-09-19T08:45:20;96589.03;;;16.31;82.56
47556;BME280;33291;46.222;26.460;2023-09-19T08:50:27;96581.91;;;16.40;84.92
47556;BME280;33291;46.222;26.460;2023-09-19T08:52:55;96587.47;;;16.45;84.84
47556;BME280;33291;46.222;26.460;2023-09-19T08:55:27;96588.59;;;16.50;84.10
47556;BME280;33291;46.222;26.460;2023-09-19T08:58:03;96585.78;;;16.52;84.27
47556;BME280;33291;46.222;26.460;2023-09-19T09:00:30;96580.66;;;16.59;84.96
47556;BME280;33291;46.222;26.460;2023-09-19T09:02:57;96567.31;;;16.60;85.16
47556;BME280;33291;46.222;26.460;2023-09-19T09:05:24;96575.31;;;16.67;84.83
47556;BME280;33291;46.222;26.460;2023-09-19T09:07:50;96580.53;;;16.75;84.70
47556;BME280;33291;46.222;26.460;2023-09-19T09:10:22;96585.09;;;16.81;84.11
47556;BME280;33291;46.222;26.460;2023-09-19T09:12:51;96591.31;;;16.89;83.27
47556;BME280;33291;46.222;26.460;2023-09-19T09:15:28;96571.38;;;16.94;84.33
47556;BME280;33291;46.222;26.460;2023-09-19T09:17:54;96583.59;;;17.10;84.38
47556;BME280;33291;46.222;26.460;2023-09-19T09:20:21;96580.50;;;17.21;83.27
47556;BME280;33291;46.222;26.460;2023-09-19T09:22:54;96588.63;;;17.35;81.02
47556;BME280;33291;46.222;26.460;2023-09-19T09:25:21;96582.56;;;17.49;79.42
47556;BME280;33291;46.222;26.460;2023-09-19T09:27:59;96581.38;;;17.67;76.16
47556;BME280;33291;46.222;26.460;2023-09-19T09:30:34;96578.50;;;17.76;74.11
47556;BME280;33291;46.222;26.460;2023-09-19T09:33:11;96576.19;;;17.88;73.01
47556;BME280;33291;46.222;26.460;2023-09-19T09:35:46;96569.75;;;18.06;71.16
47556;BME280;33291;46.222;26.460;2023-09-19T09:38:12;96574.91;;;18.14;71.04
47556;BME280;33291;46.222;26.460;2023-09-19T09:40:49;96573.38;;;18.20;70.02
47556;BME280;33291;46.222;26.460;2023-09-19T09:43:39;96575.44;;;18.24;69.61
47556;BME280;33291;46.222;26.460;2023-09-19T09:46:15;96559.00;;;18.22;69.33
47556;BME280;33291;46.222;26.460;2023-09-19T09:48:44;96564.53;;;18.27;68.82
47556;BME280;33291;46.222;26.460;2023-09-19T09:51:30;96565.19;;;18.29;68.40
47556;BME280;33291;46.222;26.460;2023-09-19T09:54:10;96555.88;;;18.34;69.38
47556;BME280;33291;46.222;26.460;2023-09-19T09:56:58;96559.59;;;18.39;68.68
47556;BME280;33291;46.222;26.460;2023-09-19T10:02:43;96568.09;;;18.56;68.10
47556;BME280;33291;46.222;26.460;2023-09-19T10:05:19;96555.50;;;18.58;67.75
47556;BME280;33291;46.222;26.460;2023-09-19T10:07:49;96548.50;;;18.65;67.93
47556;BME280;33291;46.222;26.460;2023-09-19T10:10:33;96559.38;;;18.77;69.17
47556;BME280;33291;46.222;26.460;2023-09-19T10:13:09;96548.84;;;18.84;68.12
47556;BME280;33291;46.222;26.460;2023-09-19T10:15:39;96552.03;;;18.94;67.56
47556;BME280;33291;46.222;26.460;2023-09-19T10:18:12;96552.53;;;19.05;67.26
47556;BME280;33291;46.222;26.460;2023-09-19T10:20:44;96549.16;;;19.17;67.43
47556;BME280;33291;46.222;26.460;2023-09-19T10:23:11;96543.94;;;19.24;66.47
47556;BME280;33291;46.222;26.460;2023-09-19T10:25:42;96543.78;;;19.32;66.33
47556;BME280;33291;46.222;26.460;2023-09-19T10:28:11;96546.50;;;19.46;65.69
47556;BME280;33291;46.222;26.460;2023-09-19T10:30:41;96544.09;;;19.51;65.06
47556;BME280;33291;46.222;26.460;2023-09-19T10:33:09;96535.63;;;19.62;65.02
47556;BME280;33291;46.222;26.460;2023-09-19T10:35:38;96529.59;;;19.75;65.26
47556;BME280;33291;46.222;26.460;2023-09-19T10:38:06;96522.75;;;19.81;64.79
47556;BME280;33291;46.222;26.460;2023-09-19T10:40:34;96531.13;;;19.91;64.40
47556;BME280;33291;46.222;26.460;2023-09-19T10:43:05;96530.94;;;19.99;64.29
47556;BME280;33291;46.222;26.460;2023-09-19T10:45:34;96530.16;;;20.05;63.63
47556;BME280;33291;46.222;26.460;2023-09-19T10:48:01;96529.75;;;20.09;63.30
47556;BME280;33291;46.222;26.460;2023-09-19T10:50:35;96526.97;;;20.17;63.17
47556;BME280;33291;46.222;26.460;2023-09-19T10:53:04;96522.06;;;20.20;63.68
47556;BME280;33291;46.222;26.460;2023-09-19T10:55:33;96524.56;;;20.29;64.08
47556;BME280;33291;46.222;26.460;2023-09-19T10:58:01;96512.94;;;20.30;63.82
47556;BME280;33291;46.222;26.460;2023-09-19T11:00:30;96509.50;;;20.36;63.91
47556;BME280;33291;46.222;26.460;2023-09-19T11:05:40;96494.88;;;20.33;62.35
47556;BME280;33291;46.222;26.460;2023-09-19T11:08:09;96511.56;;;20.47;62.23
47556;BME280;33291;46.222;26.460;2023-09-19T11:10:50;96510.97;;;20.52;62.46
47556;BME280;33291;46.222;26.460;2023-09-19T11:13:26;96509.94;;;20.59;61.62
47556;BME280;33291;46.222;26.460;2023-09-19T11:26:49;96491.84;;;20.63;65.90
47556;BME280;33291;46.222;26.460;2023-09-19T11:29:30;96494.09;;;20.66;63.90
47556;BME280;33291;46.222;26.460;2023-09-19T11:31:57;96495.13;;;20.65;64.03
47556;BME280;33291;46.222;26.460;2023-09-19T11:40:07;96500.63;;;20.70;69.46
47556;BME280;33291;46.222;26.460;2023-09-19T11:42:46;96502.25;;;20.71;69.39
47556;BME280;33291;46.222;26.460;2023-09-19T11:48:15;96491.28;;;20.74;70.29
47556;BME280;33291;46.222;26.460;2023-09-19T11:50:44;96499.41;;;20.80;71.01
47556;BME280;33291;46.222;26.460;2023-09-19T11:53:11;96483.53;;;20.73;70.84
47556;BME280;33291;46.222;26.460;2023-09-19T11:55:38;96502.69;;;20.82;69.98
47556;BME280;33291;46.222;26.460;2023-09-19T11:58:06;96499.00;;;20.83;71.11
47556;BME280;33291;46.222;26.460;2023-09-19T12:00:34;96499.00;;;20.83;71.03
47556;BME280;33291;46.222;26.460;2023-09-19T12:03:08;96503.47;;;20.89;70.58
47556;BME280;33291;46.222;26.460;2023-09-19T12:05:34;96490.03;;;20.84;69.15
47556;BME280;33291;46.222;26.460;2023-09-19T12:08:01;96498.59;;;20.92;68.60
47556;BME280;33291;46.222;26.460;2023-09-19T12:10:27;96485.16;;;20.87;68.29
47556;BME280;33291;46.222;26.460;2023-09-19T12:12:52;96494.50;;;20.97;69.75
47556;BME280;33291;46.222;26.460;2023-09-19T12:15:25;96495.34;;;20.97;71.41
47556;BME280;33291;46.222;26.460;2023-09-19T12:17:59;96497.38;;;20.95;72.87
47556;BME280;33291;46.222;26.460;2023-09-19T12:20:25;96495.75;;;20.94;75.21
47556;BME280;33291;46.222;26.460;2023-09-19T12:22:50;96489.22;;;20.90;76.14
47556;BME280;33291;46.222;26.460;2023-09-19T12:25:16;96492.09;;;20.88;76.65
47556;BME280;33291;46.222;26.460;2023-09-19T12:27:49;96489.84;;;20.85;77.64
47556;BME280;33291;46.222;26.460;2023-09-19T12:30:18;96495.53;;;20.82;77.92
47556;BME280;33291;46.222;26.460;2023-09-19T12:32:45;96481.50;;;20.75;77.92
47556;BME280;33291;46.222;26.460;2023-09-19T12:35:29;96489.22;;;20.76;77.75
47556;BME280;33291;46.222;26.460;2023-09-19T12:38:04;96490.06;;;20.77;78.19
47556;BME280;33291;46.222;26.460;2023-09-19T12:40:32;96493.91;;;20.74;78.13
47556;BME280;33291;46.222;26.460;2023-09-19T12:42:59;96494.94;;;20.73;78.85
47556;BME280;33291;46.222;26.460;2023-09-19T12:45:27;96494.53;;;20.70;79.25
47556;BME280;33291;46.222;26.460;2023-09-19T12:51:07;96503.06;;;20.65;80.84
47556;BME280;33291;46.222;26.460;2023-09-19T12:53:45;96504.06;;;20.64;81.83
47556;BME280;33291;46.222;26.460;2023-09-19T12:56:17;96506.31;;;20.61;82.51
47556;BME280;33291;46.222;26.460;2023-09-19T12:58:54;96508.50;;;20.57;83.07
47556;BME280;33291;46.222;26.460;2023-09-19T13:01:20;96512.81;;;20.51;82.80
47556;BME280;33291;46.222;26.460;2023-09-19T13:04:25;96515.66;;;20.50;82.75
47556;BME280;33291;46.222;26.460;2023-09-19T13:06:55;96519.06;;;20.44;82.77
47556;BME280;33291;46.222;26.460;2023-09-19T13:09:26;96520.31;;;20.41;83.03
47556;BME280;33291;46.222;26.460;2023-09-19T13:12:00;96518.06;;;20.38;82.97
47556;BME280;33291;46.222;26.460;2023-09-19T13:14:28;96515.38;;;20.31;83.42
47556;BME280;33291;46.222;26.460;2023-09-19T13:17:07;96515.59;;;20.30;83.57
47556;BME280;33291;46.222;26.460;2023-09-19T13:19:46;96524.13;;;20.25;84.08
47556;BME280;33291;46.222;26.460;2023-09-19T13:22:40;96518.63;;;20.20;85.64
47556;BME280;33291;46.222;26.460;2023-09-19T13:25:17;96513.50;;;20.12;87.22
47556;BME280;33291;46.222;26.460;2023-09-19T13:27:53;96519.59;;;20.05;88.31
47556;BME280;33291;46.222;26.460;2023-09-19T13:30:28;96514.69;;;19.96;90.33
47556;BME280;33291;46.222;26.460;2023-09-19T13:33:06;96526.03;;;19.90;91.35
47556;BME280;33291;46.222;26.460;2023-09-19T13:35:33;96532.03;;;19.77;93.15
47556;BME280;33291;46.222;26.460;2023-09-19T13:37:58;96531.59;;;19.66;91.22
47556;BME280;33291;46.222;26.460;2023-09-19T13:40:24;96529.56;;;19.62;92.02
47556;BME280;33291;46.222;26.460;2023-09-19T13:42:53;96531.13;;;19.56;93.63
47556;BME280;33291;46.222;26.460;2023-09-19T13:45:18;96532.53;;;19.52;94.17
47556;BME280;33291;46.222;26.460;2023-09-19T13:47:47;96530.72;;;19.52;94.49
47556;BME280;33291;46.222;26.460;2023-09-19T13:50:12;96541.03;;;19.47;96.54